createdAt,value
2019-05-16T00:01:51.693Z,94554.66
2019-05-16T00:04:18.332Z,94556.84
2019-05-16T00:06:44.883Z,94559.17
2019-05-16T00:09:11.508Z,94549.38
2019-05-16T00:11:38.535Z,94545.39
2019-05-16T00:14:05.199Z,94546.72
2019-05-16T00:16:31.835Z,94541.11
2019-05-16T00:18:58.387Z,94539.42
2019-05-16T00:21:25.002Z,94535.77
2019-05-16T00:23:51.568Z,94530.80
2019-05-16T00:26:19.708Z,94530.47
2019-05-16T00:28:48.443Z,94533.94
2019-05-16T00:31:14.926Z,94525.14
2019-05-16T00:33:41.550Z,94525.95
2019-05-16T00:36:09.207Z,94520.98
2019-05-16T00:38:37.837Z,94517.20
2019-05-16T00:41:04.369Z,94509.58
2019-05-16T00:43:30.900Z,94509.27
2019-05-16T00:45:58.961Z,94510.41
2019-05-16T00:48:25.865Z,94508.45
2019-05-16T00:50:52.401Z,94514.05
2019-05-16T00:53:19.045Z,94507.95
2019-05-16T00:55:47.827Z,94513.05
2019-05-16T00:58:18.680Z,94501.28
2019-05-16T01:00:50.062Z,94503.25
2019-05-16T01:03:16.307Z,94500.91
2019-05-16T01:05:43.916Z,94506.20
2019-05-16T01:08:11.275Z,94505.70
2019-05-16T01:10:39.043Z,94500.91
2019-05-16T01:13:07.846Z,94499.59
2019-05-16T01:15:34.131Z,94498.95
2019-05-16T01:18:00.717Z,94496.80
2019-05-16T01:20:27.958Z,94495.44
2019-05-16T01:22:54.683Z,94494.30
2019-05-16T01:25:21.318Z,94499.95
2019-05-16T01:27:47.876Z,94497.27
2019-05-16T01:30:14.872Z,94497.95
2019-05-16T01:32:41.419Z,94494.81
2019-05-16T01:35:08.409Z,94489.70
2019-05-16T01:37:35.305Z,94492.71
2019-05-16T01:40:02.627Z,94485.74
2019-05-16T01:42:29.149Z,94489.06
2019-05-16T01:44:57.706Z,94486.06
2019-05-16T01:47:24.107Z,94487.06
2019-05-16T01:49:50.639Z,94487.76
2019-05-16T01:52:17.818Z,94480.83
2019-05-16T01:54:44.518Z,94484.47
2019-05-16T01:57:11.039Z,94477.54
2019-05-16T01:59:38.105Z,94479.36
2019-05-16T02:02:04.702Z,94481.05
2019-05-16T02:04:31.348Z,94480.88
2019-05-16T02:06:58.435Z,94481.23
2019-05-16T02:09:25.241Z,94474.30
2019-05-16T02:11:51.871Z,94474.30
2019-05-16T02:14:18.437Z,94462.91
2019-05-16T02:16:44.991Z,94457.26
2019-05-16T02:19:11.528Z,94458.62
2019-05-16T02:21:38.860Z,94454.80
2019-05-16T02:24:05.574Z,94455.80
2019-05-16T02:26:32.069Z,94458.80
2019-05-16T02:29:00.774Z,94450.83
2019-05-16T02:31:27.084Z,94457.65
2019-05-16T02:33:53.663Z,94449.86
2019-05-16T02:36:21.643Z,94446.89
2019-05-16T02:38:51.393Z,94437.64
2019-05-16T02:41:16.996Z,94439.64
2019-05-16T02:43:43.577Z,94435.31
2019-05-16T02:46:11.907Z,94430.84
2019-05-16T02:48:41.057Z,94425.38
2019-05-16T02:51:10.817Z,94419.59
2019-05-16T02:53:36.146Z,94419.41
2019-05-16T02:56:02.895Z,94424.70
2019-05-16T02:58:30.661Z,94425.67
2019-05-16T03:01:01.719Z,94412.09
2019-05-16T03:03:27.350Z,94410.45
2019-05-16T03:05:54.797Z,94406.80
2019-05-16T03:08:21.842Z,94407.48
2019-05-16T03:10:51.973Z,94402.66
2019-05-16T03:13:22.052Z,94406.63
2019-05-16T03:15:50.907Z,94399.37
2019-05-16T03:18:21.521Z,94398.84
2019-05-16T03:20:51.168Z,94399.52
2019-05-16T03:23:21.552Z,94395.23
2019-05-16T03:25:46.484Z,94398.52
2019-05-16T03:28:13.127Z,94397.84
2019-05-16T03:30:44.874Z,94389.26
2019-05-16T03:33:15.032Z,94381.97
2019-05-16T03:35:36.639Z,94383.97
2019-05-16T03:38:05.530Z,94377.37
2019-05-16T03:40:33.623Z,94379.51
2019-05-16T03:43:01.529Z,94381.30
2019-05-16T03:45:31.475Z,94380.33
2019-05-16T03:48:02.259Z,94381.97
2019-05-16T03:50:27.075Z,94383.44
2019-05-16T03:52:53.593Z,94376.37
2019-05-16T03:55:21.355Z,94385.61
2019-05-16T03:57:51.386Z,94386.58
2019-05-16T04:00:21.983Z,94388.58
2019-05-16T04:02:52.065Z,94385.63
2019-05-16T04:05:16.929Z,94374.76
2019-05-16T04:07:43.467Z,94377.05
2019-05-16T04:10:10.912Z,94378.22
2019-05-16T04:12:41.465Z,94370.94
2019-05-16T04:15:07.211Z,94371.61
2019-05-16T04:17:33.844Z,94376.11
2019-05-16T04:20:02.219Z,94372.47
2019-05-16T04:22:31.509Z,94370.14
2019-05-16T04:24:57.298Z,94369.67
2019-05-16T04:27:23.868Z,94371.84
2019-05-16T04:29:51.300Z,94370.34
2019-05-16T04:32:20.808Z,94367.05
2019-05-16T04:34:46.595Z,94368.39
2019-05-16T04:37:13.166Z,94366.23
2019-05-16T04:39:41.440Z,94361.12
2019-05-16T04:42:10.836Z,94358.13
2019-05-16T04:44:36.633Z,94351.02
2019-05-16T04:47:03.243Z,94353.83
2019-05-16T04:49:32.017Z,94348.86
2019-05-16T04:52:00.621Z,94356.48
2019-05-16T04:54:26.940Z,94352.66
2019-05-16T04:56:53.513Z,94350.85
2019-05-16T04:59:20.801Z,94354.14
2019-05-16T05:01:50.849Z,94355.80
2019-05-16T05:04:15.971Z,94350.68
2019-05-16T05:06:42.561Z,94358.27
2019-05-16T05:09:11.681Z,94353.65
2019-05-16T05:11:37.572Z,94349.55
2019-05-16T05:14:04.149Z,94351.35
2019-05-16T05:16:30.788Z,94357.48
2019-05-16T05:19:00.143Z,94351.18
2019-05-16T05:21:25.819Z,94352.02
2019-05-16T05:23:52.342Z,94347.38
2019-05-16T05:26:19.978Z,94344.91
2019-05-16T05:28:46.629Z,94340.95
2019-05-16T05:31:13.168Z,94342.58
2019-05-16T05:33:41.655Z,94348.05
2019-05-16T05:36:11.955Z,94344.73
2019-05-16T05:38:40.271Z,94345.39
2019-05-16T05:41:06.978Z,94336.77
2019-05-16T05:43:33.507Z,94337.24
2019-05-16T05:46:00.712Z,94331.95
2019-05-16T05:48:30.567Z,94334.59
2019-05-16T05:50:56.131Z,94332.74
2019-05-16T05:53:22.663Z,94341.33
2019-05-16T05:55:50.973Z,94340.78
2019-05-16T05:58:20.377Z,94344.92
2019-05-16T06:00:46.359Z,94348.58
2019-05-16T06:03:12.994Z,94344.25
2019-05-16T06:05:41.307Z,94349.17
2019-05-16T06:08:10.526Z,94350.66
2019-05-16T06:10:36.462Z,94347.23
2019-05-16T06:13:03.039Z,94350.61
2019-05-16T06:15:30.611Z,94348.30
2019-05-16T06:18:00.084Z,94350.14
2019-05-16T06:20:25.825Z,94350.08
2019-05-16T06:22:52.360Z,94344.55
2019-05-16T06:25:22.771Z,94338.83
2019-05-16T06:27:50.970Z,94333.65
2019-05-16T06:30:17.122Z,94333.77
2019-05-16T06:32:43.657Z,94332.20
2019-05-16T06:35:10.896Z,94323.32
2019-05-16T06:37:37.495Z,94329.15
2019-05-16T06:40:04.726Z,94335.28
2019-05-16T06:42:31.367Z,94331.84
2019-05-16T06:45:00.578Z,94337.70
2019-05-16T06:47:26.385Z,94340.98
2019-05-16T06:49:52.914Z,94339.23
2019-05-16T06:52:19.764Z,94333.09
2019-05-16T06:54:46.467Z,94334.73
2019-05-16T06:57:12.984Z,94335.86
2019-05-16T06:59:40.507Z,94336.48
2019-05-16T07:02:07.104Z,94331.84
2019-05-16T07:04:33.677Z,94326.23
2019-05-16T07:07:02.924Z,94331.10
2019-05-16T07:09:30.146Z,94328.14
2019-05-16T07:11:56.757Z,94319.83
2019-05-16T07:14:23.488Z,94325.83
2019-05-16T07:16:50.026Z,94320.57
2019-05-16T07:19:16.555Z,94320.34
2019-05-16T07:21:43.193Z,94321.18
2019-05-16T07:24:10.916Z,94320.78
2019-05-16T07:26:40.343Z,94317.15
2019-05-16T07:29:06.194Z,94324.81
2019-05-16T07:31:32.717Z,94319.20
2019-05-16T07:34:00.815Z,94316.99
2019-05-16T07:36:27.581Z,94319.44
2019-05-16T07:38:54.873Z,94328.63
2019-05-16T07:41:21.473Z,94322.80
2019-05-16T07:43:50.304Z,94322.25
2019-05-16T07:46:16.504Z,94318.78
2019-05-16T07:48:43.019Z,94317.73
2019-05-16T07:51:10.506Z,94314.45
2019-05-16T07:53:40.073Z,94312.12
2019-05-16T07:56:05.755Z,94313.02
2019-05-16T07:58:32.290Z,94314.24
2019-05-16T08:01:06.803Z,94306.30
2019-05-16T08:03:27.281Z,94306.86
2019-05-16T08:05:53.821Z,94308.44
2019-05-16T08:08:24.059Z,94299.57
2019-05-16T08:10:50.734Z,94309.91
2019-05-16T08:13:18.503Z,94306.80
2019-05-16T08:15:45.680Z,94304.20
2019-05-16T08:18:12.206Z,94301.58
2019-05-16T08:20:41.321Z,94308.75
2019-05-16T08:23:07.192Z,94304.44
2019-05-16T08:25:35.238Z,94301.65
2019-05-16T08:28:01.793Z,94301.34
2019-05-16T08:30:31.182Z,94298.28
2019-05-16T08:32:56.771Z,94299.90
2019-05-16T08:35:23.423Z,94298.21
2019-05-16T08:37:51.466Z,94297.76
2019-05-16T08:40:21.678Z,94292.13
2019-05-16T08:42:51.580Z,94295.70
2019-05-16T08:45:16.971Z,94281.47
2019-05-16T08:47:43.744Z,94278.90
2019-05-16T08:52:43.537Z,94281.08
2019-05-16T08:55:12.565Z,94282.91
2019-05-16T08:57:40.846Z,94281.97
2019-05-16T09:00:07.924Z,94269.36
2019-05-16T09:02:36.835Z,94265.21
2019-05-16T09:05:06.016Z,94263.31
2019-05-16T09:07:33.009Z,94262.88
2019-05-16T09:10:00.987Z,94257.45
2019-05-16T09:12:27.953Z,94258.69
2019-05-16T09:14:54.646Z,94256.89
2019-05-16T09:17:21.198Z,94261.44
2019-05-16T09:18:30.745Z,94286.14
2019-05-16T09:19:53.781Z,94264.74
2019-05-16T09:22:20.319Z,94261.16
2019-05-16T09:24:48.138Z,94253.81
2019-05-16T09:27:17.711Z,94252.70
2019-05-16T09:29:43.446Z,94249.23
2019-05-16T09:32:17.086Z,94244.64
2019-05-16T09:34:38.521Z,94246.69
2019-05-16T09:37:08.237Z,94237.66
2019-05-16T09:39:33.458Z,94240.62
2019-05-16T09:41:59.992Z,94233.97
2019-05-16T09:44:27.344Z,94241.52
2019-05-16T09:46:56.835Z,94235.10
2019-05-16T09:49:25.104Z,94240.19
2019-05-16T09:51:51.093Z,94231.27
2019-05-16T09:54:17.610Z,94234.84
2019-05-16T09:56:46.351Z,94232.36
2019-05-16T09:59:12.666Z,94231.24
2019-05-16T10:01:39.193Z,94229.33
2019-05-16T10:04:06.721Z,94231.70
2019-05-16T10:06:33.457Z,94226.41
2019-05-16T10:09:00.103Z,94223.12
2019-05-16T10:11:31.108Z,94221.81
2019-05-16T10:13:55.179Z,94213.73
2019-05-16T10:16:21.713Z,94211.28
2019-05-16T10:18:48.244Z,94198.84
2019-05-16T10:21:19.630Z,94207.36
2019-05-16T10:23:43.207Z,94205.94
2019-05-16T10:26:09.847Z,94200.54
2019-05-16T10:28:38.297Z,94203.71
2019-05-16T10:31:06.897Z,94197.73
2019-05-16T10:33:33.278Z,94192.31
2019-05-16T10:35:59.798Z,94203.20
2019-05-16T10:38:28.357Z,94195.61
2019-05-16T10:40:56.568Z,94206.08
2019-05-16T10:43:23.219Z,94197.44
2019-05-16T10:45:49.747Z,94196.45
2019-05-16T10:48:17.670Z,94194.53
2019-05-16T10:50:44.538Z,94186.95
2019-05-16T10:53:42.420Z,94191.95
2019-05-16T10:55:39.671Z,94191.16
2019-05-16T10:58:07.393Z,94185.36
2019-05-16T11:01:05.398Z,94188.96
2019-05-16T11:03:03.203Z,94187.64
2019-05-16T11:05:34.935Z,94181.05
2019-05-16T11:07:58.257Z,94183.05
2019-05-16T11:10:26.873Z,94177.92
2019-05-16T11:12:58.544Z,94172.76
2019-05-16T11:15:22.737Z,94178.34
2019-05-16T11:17:49.274Z,94176.02
2019-05-16T11:20:20.137Z,94164.77
2019-05-16T11:22:47.829Z,94158.44
2019-05-16T11:25:24.608Z,94154.36
2019-05-16T11:27:43.307Z,94157.13
2019-05-16T11:30:10.626Z,94156.60
2019-05-16T11:32:37.650Z,94158.66
2019-05-16T11:35:07.309Z,94156.33
2019-05-16T11:37:36.880Z,94155.42
2019-05-16T11:40:06.806Z,94163.73
2019-05-16T11:42:33.491Z,94161.70
2019-05-16T11:45:00.017Z,94159.73
2019-05-16T11:47:27.181Z,94155.95
2019-05-16T11:49:53.893Z,94154.53
2019-05-16T11:52:20.409Z,94154.96
2019-05-16T11:54:47.014Z,94146.31
2019-05-16T11:57:13.566Z,94138.56
2019-05-16T11:59:40.102Z,94141.22
2019-05-16T12:02:06.640Z,94139.95
2019-05-16T12:04:33.221Z,94143.62
2019-05-16T12:06:59.747Z,94148.08
2019-05-16T12:09:33.698Z,94148.02
2019-05-16T12:12:02.659Z,94143.20
2019-05-16T12:14:23.215Z,94140.95
2019-05-16T12:16:49.741Z,94143.47
2019-05-16T12:19:18.144Z,94144.12
2019-05-16T12:21:44.709Z,94132.83
2019-05-16T12:24:11.246Z,94136.52
2019-05-16T12:26:37.783Z,94132.98
2019-05-16T12:29:04.323Z,94132.62
2019-05-16T12:31:32.575Z,94129.67
2019-05-16T12:33:59.901Z,94135.67
2019-05-16T12:36:31.211Z,94130.41
2019-05-16T12:38:57.507Z,94134.30
2019-05-16T12:41:28.452Z,94132.14
2019-05-16T12:43:53.686Z,94129.67
2019-05-16T12:46:20.302Z,94127.23
2019-05-16T12:48:47.450Z,94122.36
2019-05-16T12:51:14.561Z,94126.23
2019-05-16T12:53:41.096Z,94123.02
2019-05-16T12:56:07.630Z,94119.94
2019-05-16T12:58:41.413Z,94119.77
2019-05-16T13:01:02.903Z,94119.59
2019-05-16T13:03:29.432Z,94118.52
2019-05-16T13:05:57.112Z,94108.68
2019-05-16T13:08:26.625Z,94105.98
2019-05-16T13:10:57.827Z,94099.30
2019-05-16T13:13:24.482Z,94108.16
2019-05-16T13:15:51.034Z,94100.87
2019-05-16T13:18:17.574Z,94089.86
2019-05-16T13:20:46.531Z,94086.44
2019-05-16T13:23:14.730Z,94079.58
2019-05-16T13:25:41.106Z,94071.94
2019-05-16T13:28:08.767Z,94069.56
2019-05-16T13:30:37.717Z,94072.59
2019-05-16T13:33:03.810Z,94068.76
2019-05-16T13:35:30.345Z,94065.58
2019-05-16T13:37:58.001Z,94057.67
2019-05-16T13:40:24.665Z,94054.64
2019-05-16T13:42:51.239Z,94063.25
2019-05-16T13:45:19.270Z,94062.06
2019-05-16T13:47:48.443Z,94058.37
2019-05-16T13:50:16.686Z,94045.57
2019-05-16T13:52:42.962Z,94049.99
2019-05-16T13:55:09.798Z,94049.95
2019-05-16T13:57:37.392Z,94050.98
2019-05-16T14:00:07.651Z,94043.39
2019-05-16T14:02:37.620Z,94055.72
2019-05-16T14:05:07.528Z,94049.17
2019-05-16T14:07:37.054Z,94046.39
2019-05-16T14:10:07.946Z,94041.14
2019-05-16T14:12:36.620Z,94043.73
2019-05-16T14:15:07.924Z,94043.48
2019-05-16T14:17:37.101Z,94030.08
2019-05-16T14:20:14.572Z,94034.33
2019-05-16T14:22:38.646Z,94035.17
2019-05-16T14:25:07.153Z,94032.87
2019-05-16T14:27:33.825Z,94033.05
2019-05-16T14:30:00.733Z,94026.73
2019-05-16T14:32:27.311Z,94023.27
2019-05-16T14:34:53.894Z,94024.31
2019-05-16T14:37:20.490Z,94019.02
2019-05-16T14:39:48.709Z,94017.04
2019-05-16T14:42:17.830Z,94014.48
2019-05-16T14:45:03.504Z,94007.06
2019-05-16T14:47:13.093Z,94009.06
2019-05-16T14:49:39.646Z,94008.61
2019-05-16T14:52:06.255Z,94002.19
2019-05-16T14:54:32.768Z,94002.29
2019-05-16T14:57:01.074Z,94010.11
2019-05-16T14:59:30.654Z,94005.28
2019-05-16T15:01:58.141Z,94003.78
2019-05-16T15:04:29.870Z,94005.81
2019-05-16T15:06:53.759Z,93992.78
2019-05-16T15:09:20.313Z,93991.23
2019-05-16T15:11:46.839Z,93990.72
2019-05-16T15:14:13.495Z,93987.37
2019-05-16T15:16:40.022Z,93990.47
2019-05-16T15:19:08.140Z,93987.70
2019-05-16T15:21:34.886Z,93987.26
2019-05-16T15:24:01.415Z,93986.08
2019-05-16T15:26:27.946Z,93979.14
2019-05-16T15:28:54.500Z,93979.30
2019-05-16T15:31:21.410Z,93983.84
2019-05-16T15:33:47.924Z,93977.63
2019-05-16T15:36:16.738Z,93976.03
2019-05-16T15:38:42.958Z,93973.72
2019-05-16T15:41:09.486Z,93978.50
2019-05-16T15:43:36.850Z,93983.48
2019-05-16T15:46:07.671Z,93982.18
2019-05-16T15:48:33.181Z,93975.64
2019-05-16T15:51:00.168Z,93972.36
2019-05-16T15:53:27.947Z,93969.09
2019-05-16T15:55:54.885Z,93966.77
2019-05-16T15:58:21.489Z,93964.30
2019-05-16T16:00:49.228Z,93963.50
2019-05-16T16:03:17.635Z,93953.34
2019-05-16T16:05:44.420Z,93955.83
2019-05-16T16:08:11.867Z,93955.73
2019-05-16T16:10:40.935Z,93955.82
2019-05-16T16:13:08.033Z,93954.98
2019-05-16T16:15:49.549Z,93951.04
2019-05-16T16:18:08.835Z,93946.31
2019-05-16T16:20:35.158Z,93946.53
2019-05-16T16:23:02.111Z,93932.55
2019-05-16T16:25:28.869Z,93937.22
2019-05-16T16:27:57.298Z,93936.63
2019-05-16T16:30:24.049Z,93941.55
2019-05-16T16:32:50.567Z,93937.92
2019-05-16T16:35:17.440Z,93937.84
2019-05-16T16:37:44.159Z,93938.30
2019-05-16T16:40:12.788Z,93939.17
2019-05-16T16:42:39.537Z,93941.72
2019-05-16T16:45:07.563Z,93942.02
2019-05-16T16:47:34.104Z,93945.78
2019-05-16T16:50:00.785Z,93947.64
2019-05-16T16:52:27.468Z,93940.19
2019-05-16T16:54:53.999Z,93946.30
2019-05-16T16:57:20.560Z,93936.67
2019-05-16T16:59:47.772Z,93940.45
2019-05-16T17:02:16.999Z,93937.41
2019-05-16T17:04:42.864Z,93940.55
2019-05-16T17:07:09.382Z,93938.62
2019-05-16T17:09:37.191Z,93933.65
2019-05-16T17:12:11.724Z,93934.17
2019-05-16T17:14:38.246Z,93932.95
2019-05-16T17:17:11.606Z,93925.53
2019-05-16T17:19:38.432Z,93930.02
2019-05-16T17:22:14.695Z,93936.70
2019-05-16T17:24:36.628Z,93932.69
2019-05-16T17:27:03.427Z,93933.39
2019-05-16T17:29:30.362Z,93928.09
2019-05-16T17:32:05.935Z,93931.64
2019-05-16T17:34:26.712Z,93928.62
2019-05-16T17:36:53.368Z,93926.47
2019-05-16T17:39:19.908Z,93928.41
2019-05-16T17:41:54.095Z,93926.09
2019-05-16T17:44:14.886Z,93929.80
2019-05-16T17:46:41.415Z,93931.20
2019-05-16T17:49:07.952Z,93931.34
2019-05-16T17:51:36.604Z,93923.75
2019-05-16T17:54:03.603Z,93922.41
2019-05-16T17:56:30.121Z,93919.88
2019-05-16T17:58:56.961Z,93920.46
2019-05-16T18:01:23.705Z,93922.14
2019-05-16T18:03:50.243Z,93923.00
2019-05-16T18:06:17.052Z,93925.52
2019-05-16T18:08:46.684Z,93928.06
2019-05-16T18:11:12.327Z,93924.23
2019-05-16T18:13:38.880Z,93922.67
2019-05-16T18:16:07.413Z,93919.99
2019-05-16T18:18:37.384Z,93921.23
2019-05-16T18:21:03.702Z,93922.90
2019-05-16T18:23:30.344Z,93922.38
2019-05-16T18:25:57.571Z,93920.61
2019-05-16T18:28:26.676Z,93923.04
2019-05-16T18:30:53.275Z,93919.55
2019-05-16T18:33:19.815Z,93916.55
2019-05-16T18:35:46.677Z,93911.78
2019-05-16T18:38:13.515Z,93916.31
2019-05-16T18:40:40.056Z,93911.92
2019-05-16T18:43:08.153Z,93906.09
2019-05-16T18:45:36.592Z,93903.33
2019-05-16T18:48:06.989Z,93906.23
2019-05-16T18:50:33.277Z,93901.80
2019-05-16T18:53:00.535Z,93895.12
2019-05-16T18:55:27.099Z,93895.41
2019-05-16T18:57:53.618Z,93894.27
2019-05-16T19:00:20.362Z,93893.73
2019-05-16T19:02:47.884Z,93891.48
2019-05-16T19:05:17.214Z,93891.38
2019-05-16T19:07:43.955Z,93891.05
2019-05-16T19:10:10.589Z,93884.96
2019-05-16T19:12:37.395Z,93882.81
2019-05-16T19:15:07.245Z,93886.14
2019-05-16T19:17:33.857Z,93881.33
2019-05-16T19:20:00.394Z,93885.04
2019-05-16T19:22:26.915Z,93881.55
2019-05-16T19:24:53.458Z,93882.37
2019-05-16T19:27:19.982Z,93878.06
2019-05-16T19:29:46.582Z,93882.08
2019-05-16T19:32:13.110Z,93885.70
2019-05-16T19:34:39.642Z,93888.59
2019-05-16T19:37:06.941Z,93884.27
2019-05-16T19:39:33.697Z,93891.20
2019-05-16T19:42:00.236Z,93884.52
2019-05-16T19:44:27.339Z,93877.03
2019-05-16T19:46:54.016Z,93884.00
2019-05-16T19:49:20.545Z,93879.41
2019-05-16T19:51:49.066Z,93881.36
2019-05-16T19:54:16.356Z,93877.78
2019-05-16T19:56:43.123Z,93881.53
2019-05-16T19:59:09.664Z,93883.77
2019-05-16T20:01:36.908Z,93888.27
2019-05-16T20:04:03.656Z,93892.76
2019-05-16T20:06:30.186Z,93886.93
2019-05-16T20:08:56.718Z,93893.70
2019-05-16T20:11:23.252Z,93882.08
2019-05-16T20:13:50.167Z,93886.38
2019-05-16T20:16:18.449Z,93886.51
2019-05-16T20:18:46.630Z,93883.09
2019-05-16T20:21:13.244Z,93884.03
2019-05-16T20:23:39.828Z,93883.09
2019-05-16T20:26:07.760Z,93881.36
2019-05-16T20:28:36.908Z,93886.19
2019-05-16T20:31:03.020Z,93880.97
2019-05-16T20:33:29.607Z,93880.26
2019-05-16T20:35:57.453Z,93877.91
2019-05-16T20:38:26.629Z,93870.84
2019-05-16T20:40:52.731Z,93877.10
2019-05-16T20:43:19.284Z,93872.84
2019-05-16T20:45:47.583Z,93872.05
2019-05-16T20:48:17.791Z,93865.41
2019-05-16T20:50:42.999Z,93867.08
2019-05-16T20:53:09.534Z,93873.22
2019-05-16T20:55:37.724Z,93867.32
2019-05-16T20:58:07.358Z,93865.68
2019-05-16T21:00:33.174Z,93865.81
2019-05-16T21:02:59.725Z,93866.25
2019-05-16T21:05:26.872Z,93863.59
2019-05-16T21:07:53.487Z,93866.66
2019-05-16T21:10:20.155Z,93863.17
2019-05-16T21:12:46.871Z,93861.84
2019-05-16T21:15:13.738Z,93859.88
2019-05-16T21:17:40.335Z,93859.58
2019-05-16T21:20:07.738Z,93858.34
2019-05-16T21:22:36.780Z,93857.41
2019-05-16T21:25:04.622Z,93851.78
2019-05-16T21:27:31.176Z,93849.75
2019-05-16T21:29:57.799Z,93846.47
2019-05-16T21:32:24.405Z,93849.23
2019-05-16T21:34:51.007Z,93844.81
2019-05-16T21:37:20.343Z,93835.27
2019-05-16T21:39:47.493Z,93833.45
2019-05-16T21:42:16.499Z,93829.23
2019-05-16T21:44:42.655Z,93819.80
2019-05-16T21:47:09.337Z,93817.25
2019-05-16T21:49:37.048Z,93810.25
2019-05-16T21:52:03.828Z,93807.59
2019-05-16T21:54:30.473Z,93811.07
2019-05-16T21:56:57.210Z,93804.41
2019-05-16T21:59:23.772Z,93802.16
2019-05-16T22:01:50.472Z,93794.98
2019-05-16T22:04:17.049Z,93798.05
2019-05-16T22:06:43.595Z,93801.44
2019-05-16T22:09:10.176Z,93795.47
2019-05-16T22:11:37.179Z,93789.91
2019-05-16T22:14:03.873Z,93789.91
2019-05-16T22:16:30.449Z,93791.24
2019-05-16T22:18:56.972Z,93785.29
2019-05-16T22:21:23.548Z,93781.80
2019-05-16T22:23:50.090Z,93778.45
2019-05-16T22:26:16.931Z,93780.60
2019-05-16T22:28:46.712Z,93773.65
2019-05-16T22:31:12.418Z,93773.32
2019-05-16T22:33:38.960Z,93770.48
2019-05-16T22:36:07.061Z,93768.05
2019-05-16T22:38:33.751Z,93766.91
2019-05-16T22:41:00.274Z,93764.34
2019-05-16T22:43:26.887Z,93763.81
2019-05-16T22:45:53.520Z,93758.56
2019-05-16T22:48:20.061Z,93752.03
2019-05-16T22:50:46.605Z,93752.66
2019-05-16T22:53:13.178Z,93748.27
2019-05-16T22:55:39.697Z,93745.78
2019-05-16T22:58:07.396Z,93747.00
2019-05-16T23:00:34.376Z,93740.56
2019-05-16T23:03:00.935Z,93738.38
2019-05-16T23:05:27.610Z,93738.45
2019-05-16T23:08:04.739Z,93729.14
2019-05-16T23:10:25.065Z,93721.90
2019-05-16T23:12:51.080Z,93713.99
2019-05-16T23:15:18.421Z,93716.34
2019-05-16T23:17:46.539Z,93718.72
2019-05-16T23:20:13.392Z,93717.91
2019-05-16T23:22:39.920Z,93713.39
2019-05-16T23:25:06.841Z,93713.81
2019-05-16T23:27:33.420Z,93714.84
2019-05-16T23:29:59.978Z,93707.09
2019-05-16T23:32:27.115Z,93705.94
2019-05-16T23:34:54.086Z,93709.07
2019-05-16T23:37:20.649Z,93708.20
2019-05-16T23:39:47.554Z,93707.56
2019-05-16T23:42:14.223Z,93708.26
2019-05-16T23:44:40.795Z,93705.19
2019-05-16T23:47:07.333Z,93706.11
2019-05-16T23:49:33.875Z,93704.95
2019-05-16T23:52:00.405Z,93697.25
2019-05-16T23:54:27.797Z,93698.91
2019-05-16T23:56:54.503Z,93693.47
2019-05-16T23:59:21.062Z,93692.55
